sensor_id;sensor_type;location;lat;lon;timestamp;P1;durP1;ratioP1;P2;durP2;ratioP2
23088;SDS011;11713;48.506;8.966;2023-10-19T00:00:48;20.17;;;17.97;;
23088;SDS011;11713;48.506;8.966;2023-10-19T00:03:18;21.63;;;18.07;;
23088;SDS011;11713;48.506;8.966;2023-10-19T00:05:44;21.03;;;18.67;;
23088;SDS011;11713;48.506;8.966;2023-10-19T00:08:12;23.70;;;19.77;;
23088;SDS011;11713;48.506;8.966;2023-10-19T00:10:39;23.83;;;18.87;;
23088;SDS011;11713;48.506;8.966;2023-10-19T00:13:09;23.37;;;19.27;;
23088;SDS011;11713;48.506;8.966;2023-10-19T00:15:40;22.33;;;18.63;;
23088;SDS011;11713;48.506;8.966;2023-10-19T00:18:14;20.10;;;18.00;;
23088;SDS011;11713;48.506;8.966;2023-10-19T00:20:53;18.70;;;16.73;;
23088;SDS011;11713;48.506;8.966;2023-10-19T00:23:20;20.37;;;17.67;;
23088;SDS011;11713;48.506;8.966;2023-10-19T00:26:02;21.27;;;18.17;;
23088;SDS011;11713;48.506;8.966;2023-10-19T00:28:42;19.00;;;16.67;;
23088;SDS011;11713;48.506;8.966;2023-10-19T00:31:11;20.43;;;18.10;;
23088;SDS011;11713;48.506;8.966;2023-10-19T00:33:38;20.60;;;18.37;;
23088;SDS011;11713;48.506;8.966;2023-10-19T00:36:05;19.43;;;17.37;;
23088;SDS011;11713;48.506;8.966;2023-10-19T00:38:33;18.83;;;16.87;;
23088;SDS011;11713;48.506;8.966;2023-10-19T00:41:03;21.97;;;17.77;;
23088;SDS011;11713;48.506;8.966;2023-10-19T00:43:37;20.10;;;18.00;;
23088;SDS011;11713;48.506;8.966;2023-10-19T00:46:11;22.83;;;19.23;;
23088;SDS011;11713;48.506;8.966;2023-10-19T00:51:25;23.03;;;19.83;;
23088;SDS011;11713;48.506;8.966;2023-10-19T00:54:00;23.80;;;19.37;;
23088;SDS011;11713;48.506;8.966;2023-10-19T00:56:34;21.77;;;18.70;;
23088;SDS011;11713;48.506;8.966;2023-10-19T00:59:01;22.87;;;18.50;;
23088;SDS011;11713;48.506;8.966;2023-10-19T01:01:40;20.43;;;16.73;;
23088;SDS011;11713;48.506;8.966;2023-10-19T01:04:13;21.73;;;18.33;;
23088;SDS011;11713;48.506;8.966;2023-10-19T01:06:45;18.27;;;16.37;;
23088;SDS011;11713;48.506;8.966;2023-10-19T01:09:26;19.13;;;16.97;;
23088;SDS011;11713;48.506;8.966;2023-10-19T01:12:00;18.23;;;16.13;;
23088;SDS011;11713;48.506;8.966;2023-10-19T01:14:31;17.83;;;15.83;;
23088;SDS011;11713;48.506;8.966;2023-10-19T01:16:58;19.63;;;16.90;;
23088;SDS011;11713;48.506;8.966;2023-10-19T01:19:26;19.37;;;17.13;;
23088;SDS011;11713;48.506;8.966;2023-10-19T01:21:52;18.73;;;16.73;;
23088;SDS011;11713;48.506;8.966;2023-10-19T01:24:24;21.03;;;17.13;;
23088;SDS011;11713;48.506;8.966;2023-10-19T01:26:59;22.30;;;17.20;;
23088;SDS011;11713;48.506;8.966;2023-10-19T01:29:25;20.87;;;18.23;;
23088;SDS011;11713;48.506;8.966;2023-10-19T01:31:52;20.80;;;18.23;;
23088;SDS011;11713;48.506;8.966;2023-10-19T01:34:33;20.93;;;17.60;;
23088;SDS011;11713;48.506;8.966;2023-10-19T01:37:00;22.37;;;18.63;;
23088;SDS011;11713;48.506;8.966;2023-10-19T01:39:34;19.87;;;16.60;;
23088;SDS011;11713;48.506;8.966;2023-10-19T01:42:02;23.37;;;18.37;;
23088;SDS011;11713;48.506;8.966;2023-10-19T01:44:33;21.43;;;17.90;;
23088;SDS011;11713;48.506;8.966;2023-10-19T01:47:01;24.13;;;19.93;;
23088;SDS011;11713;48.506;8.966;2023-10-19T01:49:30;20.73;;;18.47;;
23088;SDS011;11713;48.506;8.966;2023-10-19T01:51:56;19.53;;;17.43;;
23088;SDS011;11713;48.506;8.966;2023-10-19T01:54:22;23.23;;;19.07;;
23088;SDS011;11713;48.506;8.966;2023-10-19T01:56:52;19.00;;;16.67;;
23088;SDS011;11713;48.506;8.966;2023-10-19T01:59:26;22.53;;;18.43;;
23088;SDS011;11713;48.506;8.966;2023-10-19T02:02:10;20.47;;;17.63;;
23088;SDS011;11713;48.506;8.966;2023-10-19T02:04:37;21.63;;;18.37;;
23088;SDS011;11713;48.506;8.966;2023-10-19T02:07:06;22.97;;;18.70;;
23088;SDS011;11713;48.506;8.966;2023-10-19T02:09:39;21.47;;;18.33;;
23088;SDS011;11713;48.506;8.966;2023-10-19T02:12:05;19.43;;;17.07;;
23088;SDS011;11713;48.506;8.966;2023-10-19T02:14:32;19.33;;;17.20;;
23088;SDS011;11713;48.506;8.966;2023-10-19T02:16:59;19.77;;;17.67;;
23088;SDS011;11713;48.506;8.966;2023-10-19T02:19:27;18.33;;;16.43;;
23088;SDS011;11713;48.506;8.966;2023-10-19T02:21:55;17.90;;;16.07;;
23088;SDS011;11713;48.506;8.966;2023-10-19T02:24:22;18.27;;;16.40;;
23088;SDS011;11713;48.506;8.966;2023-10-19T02:26:49;17.43;;;15.57;;
23088;SDS011;11713;48.506;8.966;2023-10-19T02:29:19;20.47;;;17.27;;
23088;SDS011;11713;48.506;8.966;2023-10-19T02:31:47;21.40;;;17.67;;
23088;SDS011;11713;48.506;8.966;2023-10-19T02:34:14;19.43;;;17.33;;
23088;SDS011;11713;48.506;8.966;2023-10-19T02:36:43;18.80;;;16.80;;
23088;SDS011;11713;48.506;8.966;2023-10-19T02:39:11;22.70;;;18.43;;
23088;SDS011;11713;48.506;8.966;2023-10-19T02:41:48;19.10;;;17.07;;
23088;SDS011;11713;48.506;8.966;2023-10-19T02:44:18;20.30;;;16.93;;
23088;SDS011;11713;48.506;8.966;2023-10-19T02:46:51;20.37;;;16.77;;
23088;SDS011;11713;48.506;8.966;2023-10-19T02:49:23;18.23;;;16.37;;
23088;SDS011;11713;48.506;8.966;2023-10-19T02:51:52;17.43;;;15.63;;
23088;SDS011;11713;48.506;8.966;2023-10-19T02:54:20;16.10;;;14.47;;
23088;SDS011;11713;48.506;8.966;2023-10-19T02:56:51;17.93;;;15.00;;
23088;SDS011;11713;48.506;8.966;2023-10-19T02:59:19;17.90;;;15.33;;
23088;SDS011;11713;48.506;8.966;2023-10-19T03:01:49;16.87;;;14.00;;
23088;SDS011;11713;48.506;8.966;2023-10-19T03:04:17;16.90;;;15.10;;
23088;SDS011;11713;48.506;8.966;2023-10-19T03:06:43;17.70;;;15.80;;
23088;SDS011;11713;48.506;8.966;2023-10-19T03:09:09;18.00;;;15.87;;
23088;SDS011;11713;48.506;8.966;2023-10-19T03:14:16;17.03;;;13.87;;
23088;SDS011;11713;48.506;8.966;2023-10-19T03:16:41;14.50;;;12.50;;
23088;SDS011;11713;48.506;8.966;2023-10-19T03:19:07;15.63;;;13.07;;
23088;SDS011;11713;48.506;8.966;2023-10-19T03:21:34;14.53;;;12.37;;
23088;SDS011;11713;48.506;8.966;2023-10-19T03:24:11;16.00;;;12.90;;
23088;SDS011;11713;48.506;8.966;2023-10-19T03:27:04;12.53;;;11.27;;
23088;SDS011;11713;48.506;8.966;2023-10-19T03:29:51;14.93;;;12.10;;
23088;SDS011;11713;48.506;8.966;2023-10-19T03:32:21;13.23;;;11.83;;
23088;SDS011;11713;48.506;8.966;2023-10-19T03:34:51;12.97;;;11.57;;
23088;SDS011;11713;48.506;8.966;2023-10-19T03:37:21;12.83;;;11.50;;
23088;SDS011;11713;48.506;8.966;2023-10-19T03:39:51;15.13;;;11.77;;
23088;SDS011;11713;48.506;8.966;2023-10-19T03:42:21;14.07;;;11.90;;
23088;SDS011;11713;48.506;8.966;2023-10-19T03:44:50;14.27;;;11.77;;
23088;SDS011;11713;48.506;8.966;2023-10-19T03:47:16;13.37;;;11.50;;
23088;SDS011;11713;48.506;8.966;2023-10-19T03:49:49;13.23;;;11.23;;
23088;SDS011;11713;48.506;8.966;2023-10-19T03:52:15;12.97;;;10.57;;
23088;SDS011;11713;48.506;8.966;2023-10-19T03:54:41;11.07;;;9.97;;
23088;SDS011;11713;48.506;8.966;2023-10-19T03:57:08;11.57;;;9.77;;
23088;SDS011;11713;48.506;8.966;2023-10-19T03:59:38;10.40;;;9.30;;
23088;SDS011;11713;48.506;8.966;2023-10-19T04:02:05;11.67;;;10.13;;
23088;SDS011;11713;48.506;8.966;2023-10-19T04:04:42;11.27;;;9.87;;
23088;SDS011;11713;48.506;8.966;2023-10-19T04:07:17;12.30;;;10.13;;
23088;SDS011;11713;48.506;8.966;2023-10-19T04:09:50;9.90;;;8.90;;
23088;SDS011;11713;48.506;8.966;2023-10-19T04:12:24;10.53;;;8.73;;
23088;SDS011;11713;48.506;8.966;2023-10-19T04:14:56;14.67;;;12.30;;
23088;SDS011;11713;48.506;8.966;2023-10-19T04:17:23;15.97;;;13.50;;
23088;SDS011;11713;48.506;8.966;2023-10-19T04:19:50;28.13;;;16.73;;
23088;SDS011;11713;48.506;8.966;2023-10-19T04:22:20;16.80;;;15.07;;
23088;SDS011;11713;48.506;8.966;2023-10-19T04:24:50;28.70;;;20.63;;
23088;SDS011;11713;48.506;8.966;2023-10-19T04:27:16;21.17;;;18.97;;
23088;SDS011;11713;48.506;8.966;2023-10-19T04:29:42;19.53;;;17.60;;
23088;SDS011;11713;48.506;8.966;2023-10-19T04:32:10;16.37;;;14.77;;
23088;SDS011;11713;48.506;8.966;2023-10-19T04:34:39;13.97;;;12.57;;
23088;SDS011;11713;48.506;8.966;2023-10-19T04:37:05;15.00;;;13.40;;
23088;SDS011;11713;48.506;8.966;2023-10-19T04:39:32;14.13;;;12.77;;
23088;SDS011;11713;48.506;8.966;2023-10-19T04:41:59;13.10;;;11.73;;
23088;SDS011;11713;48.506;8.966;2023-10-19T04:44:25;13.33;;;11.50;;
23088;SDS011;11713;48.506;8.966;2023-10-19T04:46:51;11.60;;;10.40;;
23088;SDS011;11713;48.506;8.966;2023-10-19T04:49:18;12.67;;;11.33;;
23088;SDS011;11713;48.506;8.966;2023-10-19T04:51:43;12.43;;;11.13;;
23088;SDS011;11713;48.506;8.966;2023-10-19T04:54:09;11.93;;;10.73;;
23088;SDS011;11713;48.506;8.966;2023-10-19T04:56:35;10.60;;;9.60;;
23088;SDS011;11713;48.506;8.966;2023-10-19T04:59:02;11.23;;;10.13;;
23088;SDS011;11713;48.506;8.966;2023-10-19T05:01:29;10.77;;;9.67;;
23088;SDS011;11713;48.506;8.966;2023-10-19T05:03:54;10.90;;;9.90;;
23088;SDS011;11713;48.506;8.966;2023-10-19T05:06:20;16.13;;;11.80;;
23088;SDS011;11713;48.506;8.966;2023-10-19T05:08:47;11.97;;;10.77;;
23088;SDS011;11713;48.506;8.966;2023-10-19T05:11:13;12.07;;;10.27;;
23088;SDS011;11713;48.506;8.966;2023-10-19T05:13:39;12.30;;;10.77;;
23088;SDS011;11713;48.506;8.966;2023-10-19T05:16:05;14.00;;;12.47;;
23088;SDS011;11713;48.506;8.966;2023-10-19T05:18:31;41.87;;;13.00;;
23088;SDS011;11713;48.506;8.966;2023-10-19T05:20:56;15.90;;;11.30;;
23088;SDS011;11713;48.506;8.966;2023-10-19T05:23:23;31.73;;;12.13;;
23088;SDS011;11713;48.506;8.966;2023-10-19T05:25:50;26.67;;;11.57;;
23088;SDS011;11713;48.506;8.966;2023-10-19T05:28:24;13.00;;;11.03;;
23088;SDS011;11713;48.506;8.966;2023-10-19T05:30:50;13.40;;;11.57;;
23088;SDS011;11713;48.506;8.966;2023-10-19T05:33:17;51.10;;;12.10;;
23088;SDS011;11713;48.506;8.966;2023-10-19T05:35:49;59.87;;;13.13;;
23088;SDS011;11713;48.506;8.966;2023-10-19T05:38:18;22.07;;;13.10;;
23088;SDS011;11713;48.506;8.966;2023-10-19T05:40:47;19.53;;;12.80;;
23088;SDS011;11713;48.506;8.966;2023-10-19T05:43:15;13.10;;;11.80;;
23088;SDS011;11713;48.506;8.966;2023-10-19T05:45:41;15.00;;;12.10;;
23088;SDS011;11713;48.506;8.966;2023-10-19T05:48:08;13.77;;;12.20;;
23088;SDS011;11713;48.506;8.966;2023-10-19T05:50:34;12.97;;;11.67;;
23088;SDS011;11713;48.506;8.966;2023-10-19T05:53:01;12.47;;;11.23;;
23088;SDS011;11713;48.506;8.966;2023-10-19T05:55:28;12.87;;;11.10;;
23088;SDS011;11713;48.506;8.966;2023-10-19T05:57:54;11.50;;;10.30;;
23088;SDS011;11713;48.506;8.966;2023-10-19T06:00:21;11.40;;;10.20;;
23088;SDS011;11713;48.506;8.966;2023-10-19T06:02:50;12.13;;;10.50;;
23088;SDS011;11713;48.506;8.966;2023-10-19T06:05:17;11.97;;;10.67;;
23088;SDS011;11713;48.506;8.966;2023-10-19T06:07:47;12.93;;;10.40;;
23088;SDS011;11713;48.506;8.966;2023-10-19T06:10:18;10.93;;;9.87;;
23088;SDS011;11713;48.506;8.966;2023-10-19T06:12:46;11.30;;;10.10;;
23088;SDS011;11713;48.506;8.966;2023-10-19T06:15:13;10.57;;;9.47;;
23088;SDS011;11713;48.506;8.966;2023-10-19T06:17:40;10.90;;;9.53;;
23088;SDS011;11713;48.506;8.966;2023-10-19T06:20:07;10.73;;;9.63;;
23088;SDS011;11713;48.506;8.966;2023-10-19T06:22:45;11.37;;;9.77;;
23088;SDS011;11713;48.506;8.966;2023-10-19T06:25:17;12.37;;;9.63;;
23088;SDS011;11713;48.506;8.966;2023-10-19T06:27:45;14.27;;;10.00;;
23088;SDS011;11713;48.506;8.966;2023-10-19T06:30:12;11.83;;;10.17;;
23088;SDS011;11713;48.506;8.966;2023-10-19T06:32:43;13.33;;;10.20;;
23088;SDS011;11713;48.506;8.966;2023-10-19T06:35:13;13.77;;;11.27;;
23088;SDS011;11713;48.506;8.966;2023-10-19T06:37:39;12.30;;;10.23;;
23088;SDS011;11713;48.506;8.966;2023-10-19T06:40:05;13.20;;;10.33;;
23088;SDS011;11713;48.506;8.966;2023-10-19T06:42:32;13.70;;;10.77;;
23088;SDS011;11713;48.506;8.966;2023-10-19T06:44:57;12.63;;;10.57;;
23088;SDS011;11713;48.506;8.966;2023-10-19T06:47:23;14.27;;;10.30;;
23088;SDS011;11713;48.506;8.966;2023-10-19T06:49:49;14.70;;;10.23;;
23088;SDS011;11713;48.506;8.966;2023-10-19T06:52:15;12.83;;;10.30;;
23088;SDS011;11713;48.506;8.966;2023-10-19T06:54:41;13.23;;;10.93;;
23088;SDS011;11713;48.506;8.966;2023-10-19T06:57:07;13.03;;;11.10;;
23088;SDS011;11713;48.506;8.966;2023-10-19T06:59:34;13.37;;;10.37;;
23088;SDS011;11713;48.506;8.966;2023-10-19T07:02:01;12.33;;;9.87;;
23088;SDS011;11713;48.506;8.966;2023-10-19T07:04:28;12.53;;;9.97;;
23088;SDS011;11713;48.506;8.966;2023-10-19T07:06:54;12.77;;;10.20;;
23088;SDS011;11713;48.506;8.966;2023-10-19T07:09:21;12.23;;;9.47;;
23088;SDS011;11713;48.506;8.966;2023-10-19T07:11:47;12.13;;;10.43;;
23088;SDS011;11713;48.506;8.966;2023-10-19T07:14:18;14.97;;;12.63;;
23088;SDS011;11713;48.506;8.966;2023-10-19T07:16:44;14.77;;;13.17;;
23088;SDS011;11713;48.506;8.966;2023-10-19T07:19:10;17.47;;;15.57;;
23088;SDS011;11713;48.506;8.966;2023-10-19T07:21:36;18.10;;;14.60;;
23088;SDS011;11713;48.506;8.966;2023-10-19T07:24:03;21.00;;;17.20;;
23088;SDS011;11713;48.506;8.966;2023-10-19T07:26:35;19.00;;;16.23;;
23088;SDS011;11713;48.506;8.966;2023-10-19T07:29:08;15.13;;;13.63;;
23088;SDS011;11713;48.506;8.966;2023-10-19T07:31:35;15.03;;;13.53;;
23088;SDS011;11713;48.506;8.966;2023-10-19T07:34:01;13.43;;;11.90;;
23088;SDS011;11713;48.506;8.966;2023-10-19T07:36:28;14.63;;;13.07;;
23088;SDS011;11713;48.506;8.966;2023-10-19T07:38:56;13.90;;;12.27;;
23088;SDS011;11713;48.506;8.966;2023-10-19T07:41:22;13.63;;;12.33;;
23088;SDS011;11713;48.506;8.966;2023-10-19T07:43:48;13.93;;;12.13;;
23088;SDS011;11713;48.506;8.966;2023-10-19T07:46:14;12.20;;;10.97;;
23088;SDS011;11713;48.506;8.966;2023-10-19T07:48:41;12.43;;;11.13;;
23088;SDS011;11713;48.506;8.966;2023-10-19T07:51:10;12.73;;;11.43;;
23088;SDS011;11713;48.506;8.966;2023-10-19T07:53:36;12.93;;;11.33;;
23088;SDS011;11713;48.506;8.966;2023-10-19T07:56:03;12.43;;;11.13;;
23088;SDS011;11713;48.506;8.966;2023-10-19T07:58:30;13.60;;;12.17;;
23088;SDS011;11713;48.506;8.966;2023-10-19T08:00:56;13.87;;;12.57;;
23088;SDS011;11713;48.506;8.966;2023-10-19T08:03:22;13.63;;;12.23;;
23088;SDS011;11713;48.506;8.966;2023-10-19T08:05:48;13.13;;;11.70;;
23088;SDS011;11713;48.506;8.966;2023-10-19T08:08:14;12.10;;;10.80;;
23088;SDS011;11713;48.506;8.966;2023-10-19T08:10:41;11.60;;;10.40;;
23088;SDS011;11713;48.506;8.966;2023-10-19T08:13:07;11.67;;;10.53;;
23088;SDS011;11713;48.506;8.966;2023-10-19T08:15:33;15.73;;;12.00;;
23088;SDS011;11713;48.506;8.966;2023-10-19T08:17:58;13.33;;;11.93;;
23088;SDS011;11713;48.506;8.966;2023-10-19T08:20:25;13.53;;;12.13;;
23088;SDS011;11713;48.506;8.966;2023-10-19T08:22:57;13.87;;;12.43;;
23088;SDS011;11713;48.506;8.966;2023-10-19T08:25:24;13.00;;;11.80;;
23088;SDS011;11713;48.506;8.966;2023-10-19T08:27:53;14.43;;;13.13;;
23088;SDS011;11713;48.506;8.966;2023-10-19T08:30:41;15.47;;;13.87;;
23088;SDS011;11713;48.506;8.966;2023-10-19T08:33:15;16.67;;;14.43;;
23088;SDS011;11713;48.506;8.966;2023-10-19T08:35:41;15.70;;;14.13;;
23088;SDS011;11713;48.506;8.966;2023-10-19T08:38:07;15.40;;;13.77;;
23088;SDS011;11713;48.506;8.966;2023-10-19T08:40:36;14.27;;;12.80;;
23088;SDS011;11713;48.506;8.966;2023-10-19T08:43:03;16.17;;;14.50;;
23088;SDS011;11713;48.506;8.966;2023-10-19T08:45:30;15.43;;;13.90;;
23088;SDS011;11713;48.506;8.966;2023-10-19T08:48:01;14.57;;;13.17;;
23088;SDS011;11713;48.506;8.966;2023-10-19T08:50:28;14.13;;;12.73;;
23088;SDS011;11713;48.506;8.966;2023-10-19T08:52:56;13.00;;;11.47;;
23088;SDS011;11713;48.506;8.966;2023-10-19T08:55:23;13.50;;;12.20;;
23088;SDS011;11713;48.506;8.966;2023-10-19T08:57:50;12.20;;;11.00;;
23088;SDS011;11713;48.506;8.966;2023-10-19T09:00:19;12.20;;;11.00;;
23088;SDS011;11713;48.506;8.966;2023-10-19T09:02:53;13.83;;;11.60;;
23088;SDS011;11713;48.506;8.966;2023-10-19T09:05:21;13.93;;;12.53;;
23088;SDS011;11713;48.506;8.966;2023-10-19T09:07:48;13.43;;;12.13;;
23088;SDS011;11713;48.506;8.966;2023-10-19T09:10:20;12.77;;;11.47;;
23088;SDS011;11713;48.506;8.966;2023-10-19T09:13:04;12.27;;;10.97;;
23088;SDS011;11713;48.506;8.966;2023-10-19T09:15:37;11.77;;;10.67;;
23088;SDS011;11713;48.506;8.966;2023-10-19T09:18:15;12.83;;;10.80;;
23088;SDS011;11713;48.506;8.966;2023-10-19T09:20:42;11.23;;;10.17;;
23088;SDS011;11713;48.506;8.966;2023-10-19T09:23:24;11.60;;;10.37;;
23088;SDS011;11713;48.506;8.966;2023-10-19T09:25:53;11.10;;;9.97;;
23088;SDS011;11713;48.506;8.966;2023-10-19T09:28:19;11.17;;;9.90;;
23088;SDS011;11713;48.506;8.966;2023-10-19T09:30:50;14.00;;;11.30;;
23088;SDS011;11713;48.506;8.966;2023-10-19T09:33:17;12.83;;;11.50;;
23088;SDS011;11713;48.506;8.966;2023-10-19T09:35:46;15.77;;;11.80;;
23088;SDS011;11713;48.506;8.966;2023-10-19T09:38:26;13.97;;;12.03;;
23088;SDS011;11713;48.506;8.966;2023-10-19T09:40:53;15.73;;;12.43;;
23088;SDS011;11713;48.506;8.966;2023-10-19T09:43:43;13.30;;;11.43;;
23088;SDS011;11713;48.506;8.966;2023-10-19T09:46:10;11.07;;;9.87;;
23088;SDS011;11713;48.506;8.966;2023-10-19T09:48:41;12.37;;;10.27;;
23088;SDS011;11713;48.506;8.966;2023-10-19T09:51:11;12.10;;;9.77;;
23088;SDS011;11713;48.506;8.966;2023-10-19T09:53:38;11.60;;;10.43;;
23088;SDS011;11713;48.506;8.966;2023-10-19T09:56:14;10.53;;;9.43;;
23088;SDS011;11713;48.506;8.966;2023-10-19T09:58:48;11.63;;;10.13;;
23088;SDS011;11713;48.506;8.966;2023-10-19T10:01:18;10.27;;;9.27;;
23088;SDS011;11713;48.506;8.966;2023-10-19T10:03:47;10.67;;;9.23;;
23088;SDS011;11713;48.506;8.966;2023-10-19T10:06:15;10.13;;;9.13;;
23088;SDS011;11713;48.506;8.966;2023-10-19T10:08:45;11.63;;;10.13;;
23088;SDS011;11713;48.506;8.966;2023-10-19T10:11:23;10.57;;;9.50;;
23088;SDS011;11713;48.506;8.966;2023-10-19T10:13:52;10.60;;;8.70;;
23088;SDS011;11713;48.506;8.966;2023-10-19T10:16:23;10.63;;;8.73;;
23088;SDS011;11713;48.506;8.966;2023-10-19T10:18:51;8.77;;;7.87;;
23088;SDS011;11713;48.506;8.966;2023-10-19T10:21:25;10.70;;;9.00;;
23088;SDS011;11713;48.506;8.966;2023-10-19T10:24:01;11.83;;;9.73;;
23088;SDS011;11713;48.506;8.966;2023-10-19T10:26:30;11.60;;;8.70;;
23088;SDS011;11713;48.506;8.966;2023-10-19T10:29:22;10.37;;;8.13;;
23088;SDS011;11713;48.506;8.966;2023-10-19T10:31:52;10.27;;;8.63;;
23088;SDS011;11713;48.506;8.966;2023-10-19T10:37:06;10.50;;;9.33;;
23088;SDS011;11713;48.506;8.966;2023-10-19T10:39:36;14.23;;;11.80;;
23088;SDS011;11713;48.506;8.966;2023-10-19T10:42:03;10.57;;;9.47;;
23088;SDS011;11713;48.506;8.966;2023-10-19T10:47:26;9.73;;;8.30;;
23088;SDS011;11713;48.506;8.966;2023-10-19T10:49:58;8.77;;;7.97;;
23088;SDS011;11713;48.506;8.966;2023-10-19T10:52:29;10.80;;;8.50;;
23088;SDS011;11713;48.506;8.966;2023-10-19T10:55:06;9.07;;;8.17;;
23088;SDS011;11713;48.506;8.966;2023-10-19T10:57:38;9.00;;;8.20;;
23088;SDS011;11713;48.506;8.966;2023-10-19T11:00:07;8.60;;;7.73;;
23088;SDS011;11713;48.506;8.966;2023-10-19T11:02:41;8.90;;;8.00;;
23088;SDS011;11713;48.506;8.966;2023-10-19T11:05:11;10.27;;;7.90;;
23088;SDS011;11713;48.506;8.966;2023-10-19T11:07:38;9.53;;;8.53;;
23088;SDS011;11713;48.506;8.966;2023-10-19T11:10:05;13.10;;;9.83;;
23088;SDS011;11713;48.506;8.966;2023-10-19T11:12:31;9.70;;;8.70;;
23088;SDS011;11713;48.506;8.966;2023-10-19T11:14:58;10.93;;;8.90;;
23088;SDS011;11713;48.506;8.966;2023-10-19T11:17:25;9.43;;;8.43;;
23088;SDS011;11713;48.506;8.966;2023-10-19T11:19:57;10.50;;;8.37;;
23088;SDS011;11713;48.506;8.966;2023-10-19T11:22:24;8.93;;;8.03;;
23088;SDS011;11713;48.506;8.966;2023-10-19T11:24:55;11.73;;;9.27;;
23088;SDS011;11713;48.506;8.966;2023-10-19T11:27:30;10.10;;;9.07;;
23088;SDS011;11713;48.506;8.966;2023-10-19T11:29:57;11.70;;;10.37;;
23088;SDS011;11713;48.506;8.966;2023-10-19T11:32:25;13.37;;;11.47;;
23088;SDS011;11713;48.506;8.966;2023-10-19T11:34:52;11.90;;;9.50;;
23088;SDS011;11713;48.506;8.966;2023-10-19T11:37:21;12.10;;;9.93;;
23088;SDS011;11713;48.506;8.966;2023-10-19T11:39:48;11.30;;;9.83;;
23088;SDS011;11713;48.506;8.966;2023-10-19T11:42:19;11.23;;;9.90;;
23088;SDS011;11713;48.506;8.966;2023-10-19T11:44:45;12.50;;;10.83;;
23088;SDS011;11713;48.506;8.966;2023-10-19T11:47:12;11.40;;;10.23;;
23088;SDS011;11713;48.506;8.966;2023-10-19T11:49:41;11.83;;;9.73;;
23088;SDS011;11713;48.506;8.966;2023-10-19T11:52:07;11.03;;;9.83;;
23088;SDS011;11713;48.506;8.966;2023-10-19T11:54:33;11.60;;;10.40;;
23088;SDS011;11713;48.506;8.966;2023-10-19T11:56:59;10.90;;;9.80;;
23088;SDS011;11713;48.506;8.966;2023-10-19T11:59:25;10.60;;;9.50;;
23088;SDS011;11713;48.506;8.966;2023-10-19T12:01:52;10.80;;;9.70;;
23088;SDS011;11713;48.506;8.966;2023-10-19T12:04:20;9.93;;;8.93;;
23088;SDS011;11713;48.506;8.966;2023-10-19T12:06:46;11.93;;;7.97;;
23088;SDS011;11713;48.506;8.966;2023-10-19T12:09:11;9.97;;;7.87;;
23088;SDS011;11713;48.506;8.966;2023-10-19T12:11:40;8.63;;;7.80;;
23088;SDS011;11713;48.506;8.966;2023-10-19T12:14:06;7.30;;;6.63;;
23088;SDS011;11713;48.506;8.966;2023-10-19T12:16:37;7.47;;;6.67;;
23088;SDS011;11713;48.506;8.966;2023-10-19T12:19:04;10.30;;;9.03;;
23088;SDS011;11713;48.506;8.966;2023-10-19T12:21:30;12.37;;;11.07;;
23088;SDS011;11713;48.506;8.966;2023-10-19T12:24:00;15.50;;;13.20;;
23088;SDS011;11713;48.506;8.966;2023-10-19T12:26:31;14.60;;;12.37;;
23088;SDS011;11713;48.506;8.966;2023-10-19T12:28:57;12.97;;;10.43;;
23088;SDS011;11713;48.506;8.966;2023-10-19T12:31:23;12.73;;;11.50;;
23088;SDS011;11713;48.506;8.966;2023-10-19T12:33:50;15.03;;;11.87;;
23088;SDS011;11713;48.506;8.966;2023-10-19T12:36:16;13.43;;;10.77;;
23088;SDS011;11713;48.506;8.966;2023-10-19T12:38:58;13.63;;;9.90;;
23088;SDS011;11713;48.506;8.966;2023-10-19T12:41:25;12.17;;;10.13;;
23088;SDS011;11713;48.506;8.966;2023-10-19T12:43:53;11.87;;;10.03;;
23088;SDS011;11713;48.506;8.966;2023-10-19T12:46:34;15.87;;;13.43;;
23088;SDS011;11713;48.506;8.966;2023-10-19T12:49:03;12.17;;;10.60;;
23088;SDS011;11713;48.506;8.966;2023-10-19T12:51:33;13.63;;;12.03;;
23088;SDS011;11713;48.506;8.966;2023-10-19T12:54:00;11.73;;;10.50;;
23088;SDS011;11713;48.506;8.966;2023-10-19T12:56:28;10.37;;;9.27;;
23088;SDS011;11713;48.506;8.966;2023-10-19T12:58:58;6.80;;;5.60;;
23088;SDS011;11713;48.506;8.966;2023-10-19T13:01:24;6.40;;;5.83;;
23088;SDS011;11713;48.506;8.966;2023-10-19T13:03:53;6.57;;;5.50;;
23088;SDS011;11713;48.506;8.966;2023-10-19T13:06:19;5.10;;;4.57;;
23088;SDS011;11713;48.506;8.966;2023-10-19T13:08:47;5.07;;;4.33;;
23088;SDS011;11713;48.506;8.966;2023-10-19T13:11:17;5.25;;;4.30;;
23088;SDS011;11713;48.506;8.966;2023-10-19T13:13:46;6.13;;;4.63;;
23088;SDS011;11713;48.506;8.966;2023-10-19T13:16:15;7.00;;;6.30;;
23088;SDS011;11713;48.506;8.966;2023-10-19T13:18:41;9.93;;;6.97;;
23088;SDS011;11713;48.506;8.966;2023-10-19T13:21:09;6.90;;;6.20;;
23088;SDS011;11713;48.506;8.966;2023-10-19T13:23:37;7.47;;;6.65;;
23088;SDS011;11713;48.506;8.966;2023-10-19T13:26:03;7.90;;;6.55;;
23088;SDS011;11713;48.506;8.966;2023-10-19T13:28:32;9.43;;;6.40;;
23088;SDS011;11713;48.506;8.966;2023-10-19T13:30:58;7.00;;;6.20;;
23088;SDS011;11713;48.506;8.966;2023-10-19T13:33:25;7.55;;;6.63;;
23088;SDS011;11713;48.506;8.966;2023-10-19T13:35:52;9.23;;;8.25;;
23088;SDS011;11713;48.506;8.966;2023-10-19T13:38:18;9.25;;;7.82;;
23088;SDS011;11713;48.506;8.966;2023-10-19T13:40:48;9.43;;;8.43;;
23088;SDS011;11713;48.506;8.966;2023-10-19T13:43:15;9.35;;;7.93;;
23088;SDS011;11713;48.506;8.966;2023-10-19T13:45:43;10.65;;;8.65;;
23088;SDS011;11713;48.506;8.966;2023-10-19T13:48:14;8.77;;;7.55;;
23088;SDS011;11713;48.506;8.966;2023-10-19T13:50:41;9.27;;;7.53;;
23088;SDS011;11713;48.506;8.966;2023-10-19T13:53:09;8.68;;;7.80;;
23088;SDS011;11713;48.506;8.966;2023-10-19T13:55:35;9.73;;;8.13;;
23088;SDS011;11713;48.506;8.966;2023-10-19T13:58:04;8.73;;;7.28;;
23088;SDS011;11713;48.506;8.966;2023-10-19T14:00:29;8.82;;;7.43;;
23088;SDS011;11713;48.506;8.966;2023-10-19T14:02:56;9.73;;;8.02;;
23088;SDS011;11713;48.506;8.966;2023-10-19T14:05:24;9.23;;;7.90;;
23088;SDS011;11713;48.506;8.966;2023-10-19T14:07:50;8.25;;;7.47;;
23088;SDS011;11713;48.506;8.966;2023-10-19T14:10:17;7.88;;;7.07;;
23088;SDS011;11713;48.506;8.966;2023-10-19T14:12:45;7.53;;;6.70;;
23088;SDS011;11713;48.506;8.966;2023-10-19T14:15:20;8.88;;;7.97;;
23088;SDS011;11713;48.506;8.966;2023-10-19T14:17:47;10.20;;;8.52;;
23088;SDS011;11713;48.506;8.966;2023-10-19T14:20:14;10.35;;;8.88;;
23088;SDS011;11713;48.506;8.966;2023-10-19T14:22:44;10.85;;;8.70;;
23088;SDS011;11713;48.506;8.966;2023-10-19T14:25:12;9.52;;;8.13;;
23088;SDS011;11713;48.506;8.966;2023-10-19T14:27:45;11.13;;;8.88;;
23088;SDS011;11713;48.506;8.966;2023-10-19T14:30:14;9.85;;;8.65;;
23088;SDS011;11713;48.506;8.966;2023-10-19T14:32:41;11.87;;;9.93;;
23088;SDS011;11713;48.506;8.966;2023-10-19T14:35:09;10.27;;;9.18;;
23088;SDS011;11713;48.506;8.966;2023-10-19T14:37:39;11.40;;;9.10;;
23088;SDS011;11713;48.506;8.966;2023-10-19T14:42:35;13.27;;;10.57;;
23088;SDS011;11713;48.506;8.966;2023-10-19T14:45:14;12.52;;;11.07;;
23088;SDS011;11713;48.506;8.966;2023-10-19T14:47:41;13.98;;;10.60;;
23088;SDS011;11713;48.506;8.966;2023-10-19T14:50:12;12.50;;;11.20;;
23088;SDS011;11713;48.506;8.966;2023-10-19T14:52:42;15.47;;;11.93;;